Time;durP1;ratioP1;P1;durP2;ratioP2;P2;SDS_P1;SDS_P2;PMS_P1;PMS_P2;Temp;Humidity;BMP_temperature;BMP_pressure;BME280_temperature;BME280_humidity;BME280_pressure;Samples;Min_cycle;Max_cycle;Signal;HPM_P1;HPM_P2
2022/07/31 00:00:07;;;;;;;15.85;11.85;;;;;;;16.88;74.07;100902.17;1750211;82;20884;-86
2022/07/31 00:02:36;;;;;;;14.33;10.90;;;;;;;16.86;74.14;100896.16;1715762;83;20901;-86
2022/07/31 00:05:03;;;;;;;15.28;10.70;;;;;;;16.85;74.19;100903.77;1716322;83;20976;-87
2022/07/31 00:07:31;;;;;;;13.38;10.35;;;;;;;16.83;74.30;100900.86;1716522;83;20996;-85
2022/07/31 00:09:58;;;;;;;11.12;8.75;;;;;;;16.81;74.42;100891.73;1716366;83;21156;-86
2022/07/31 00:12:24;;;;;;;12.05;8.90;;;;;;;16.79;74.38;100888.34;1716273;83;21011;-86
2022/07/31 00:14:52;;;;;;;15.78;10.05;;;;;;;16.79;74.47;100890.98;1716303;83;20937;-86
2022/07/31 00:17:19;;;;;;;13.15;10.08;;;;;;;16.78;74.49;100890.61;1716391;83;21485;-84
2022/07/31 00:19:46;;;;;;;12.20;9.50;;;;;;;16.78;74.49;100893.26;1717109;83;21319;-86
2022/07/31 00:22:12;;;;;;;11.43;8.98;;;;;;;16.77;74.46;100884.97;1718413;83;21142;-86
2022/07/31 00:24:39;;;;;;;12.13;8.53;;;;;;;16.74;74.41;100875.93;1715603;83;20957;-84
2022/07/31 00:27:05;;;;;;;18.92;9.23;;;;;;;16.73;74.38;100874.27;1704516;84;20898;-85
2022/07/31 00:29:32;;;;;;;12.78;9.73;;;;;;;16.71;74.39;100878.35;1704164;83;21419;-85
2022/07/31 00:31:59;;;;;;;12.55;10.50;;;;;;;16.68;74.43;100874.64;1703829;84;20985;-87
2022/07/31 00:34:26;;;;;;;18.92;10.45;;;;;;;16.66;74.53;100875.25;1703679;83;21132;-86
2022/07/31 00:39:42;;;;;;;16.12;10.80;;;;;;;16.64;74.77;100870.56;1883994;75;23054;-86
2022/07/31 00:42:23;;;;;;;23.12;10.88;;;;;;;16.55;74.95;100870.83;1860735;77;20898;-86
2022/07/31 00:44:51;;;;;;;13.80;11.18;;;;;;;16.50;75.14;100869.05;1860687;77;21890;-86
2022/07/31 00:47:18;;;;;;;11.90;10.10;;;;;;;16.45;75.39;100869.04;1861288;77;21470;-86
2022/07/31 00:49:44;;;;;;;14.55;10.13;;;;;;;16.39;75.75;100870.39;1860834;77;21392;-86
2022/07/31 00:52:13;;;;;;;19.80;11.03;;;;;;;16.32;76.14;100865.23;1858029;76;21018;-86
2022/07/31 00:54:41;;;;;;;17.02;11.00;;;;;;;16.26;76.24;100871.85;1860724;76;21356;-86
2022/07/31 00:57:07;;;;;;;23.60;10.75;;;;;;;16.20;76.24;100868.36;1860662;77;21083;-85
2022/07/31 00:59:35;;;;;;;17.57;9.93;;;;;;;16.17;76.34;100864.66;1860664;76;20840;-85
2022/07/31 01:02:02;;;;;;;14.73;9.73;;;;;;;16.13;76.47;100870.66;1860704;77;20836;-86
2022/07/31 01:04:29;;;;;;;11.45;8.25;;;;;;;16.12;76.53;100868.98;1860689;77;20922;-85
2022/07/31 01:06:56;;;;;;;13.38;8.45;;;;;;;16.11;76.62;100869.09;1861042;76;20871;-85
2022/07/31 01:09:23;;;;;;;13.80;7.78;;;;;;;16.11;76.59;100860.67;1860811;77;22361;-86
2022/07/31 01:12:04;;;;;;;15.72;8.65;;;;;;;16.12;76.64;100868.16;1830186;77;20871;-86
2022/07/31 01:14:40;;;;;;;11.73;8.68;;;;;;;16.11;76.82;100861.16;1860761;77;20840;-86
2022/07/31 01:17:07;;;;;;;12.25;8.10;;;;;;;16.10;76.81;100861.66;1861242;77;20876;-86
2022/07/31 01:19:44;;;;;;;12.95;8.23;;;;;;;16.09;76.88;100859.95;1863697;77;20978;-83
2022/07/31 01:22:51;;;;;;;13.75;8.30;;;;;;;16.09;76.86;100861.77;1861879;77;21121;-87
2022/07/31 01:26:03;;;;;;;10.58;8.33;;;;;;;16.05;76.76;100857.22;1860997;77;21339;-87
2022/07/31 01:29:01;;;;;;;10.98;8.23;;;;;;;16.02;76.74;100858.77;1860699;77;20879;-84
2022/07/31 01:31:35;;;;;;;13.05;8.75;;;;;;;15.99;76.71;100853.73;1860982;76;20922;-87
2022/07/31 01:34:17;;;;;;;12.15;8.08;;;;;;;15.94;76.48;100855.41;1858799;76;21833;-88
2022/07/31 01:36:48;;;;;;;10.40;8.15;;;;;;;15.91;76.13;100858.77;1860141;77;21165;-87
2022/07/31 01:39:15;;;;;;;15.68;9.23;;;;;;;15.86;76.04;100856.48;1860464;77;20930;-87
2022/07/31 01:41:43;;;;;;;20.20;10.18;;;;;;;15.84;76.08;100856.25;1830269;77;20874;-88
2022/07/31 01:44:10;;;;;;;9.45;7.92;;;;;;;15.79;76.09;100851.81;1857690;77;20930;-86
2022/07/31 01:46:37;;;;;;;11.53;8.85;;;;;;;15.73;76.14;100851.80;1860704;77;21041;-86
2022/07/31 01:49:04;;;;;;;12.58;7.65;;;;;;;15.67;76.22;100847.81;1860758;77;21182;-86
2022/07/31 01:51:32;;;;;;;10.72;7.95;;;;;;;15.64;76.68;100846.71;1860108;76;20868;-85
2022/07/31 01:54:00;;;;;;;14.68;8.03;;;;;;;15.63;77.04;100845.50;1860140;77;20923;-86
2022/07/31 01:56:29;;;;;;;15.98;7.65;;;;;;;15.61;77.28;100844.80;1857134;77;21386;-85
2022/07/31 01:58:58;;;;;;;14.35;7.95;;;;;;;15.60;77.30;100855.00;1860039;77;20962;-85
2022/07/31 02:01:27;;;;;;;9.43;7.10;;;;;;;15.58;77.54;100849.83;1855124;77;21800;-86
2022/07/31 02:03:55;;;;;;;9.65;7.10;;;;;;;15.57;77.45;100851.28;1860339;77;20978;-85
2022/07/31 02:06:23;;;;;;;10.18;6.83;;;;;;;15.56;77.45;100847.78;1860361;76;20856;-85
2022/07/31 02:08:51;;;;;;;10.75;7.78;;;;;;;15.55;77.44;100837.69;1860351;77;20918;-85
2022/07/31 02:11:18;;;;;;;7.97;6.08;;;;;;;15.55;77.25;100842.14;1829168;77;20871;-85
2022/07/31 02:13:47;;;;;;;13.62;7.00;;;;;;;15.55;77.20;100840.82;1860483;77;21153;-85
2022/07/31 02:16:14;;;;;;;26.57;7.80;;;;;;;15.55;77.33;100846.11;1862029;77;20978;-84
2022/07/31 02:18:41;;;;;;;15.63;6.78;;;;;;;15.54;77.29;100837.83;1831858;77;20883;-86
2022/07/31 02:21:12;;;;;;;9.38;7.08;;;;;;;15.54;77.16;100837.34;1860223;77;20934;-86
2022/07/31 02:23:38;;;;;;;10.63;7.33;;;;;;;15.52;77.11;100840.58;1860647;77;21325;-85
2022/07/31 02:26:05;;;;;;;16.02;7.10;;;;;;;15.52;77.00;100839.27;1860219;77;21212;-85
2022/07/31 02:28:36;;;;;;;12.13;6.85;;;;;;;15.51;77.08;100834.09;1860135;77;20891;-84
2022/07/31 02:31:04;;;;;;;11.88;7.15;;;;;;;15.51;77.13;100830.95;1862419;77;20895;-84
2022/07/31 02:33:31;;;;;;;8.88;6.80;;;;;;;15.52;77.12;100824.72;1862232;77;20832;-83
2022/07/31 02:35:59;;;;;;;11.35;7.25;;;;;;;15.53;77.08;100828.20;1860263;76;20923;-86
2022/07/31 02:38:27;;;;;;;9.15;7.05;;;;;;;15.52;76.71;100829.17;1860279;77;21373;-85
2022/07/31 02:41:00;;;;;;;13.55;7.28;;;;;;;15.52;76.71;100829.17;1860077;77;21463;-86
2022/07/31 02:43:28;;;;;;;13.40;7.10;;;;;;;15.51;76.73;100832.77;1860504;77;20871;-84
2022/07/31 02:45:56;;;;;;;9.85;6.62;;;;;;;15.50;76.77;100837.22;1801475;77;20923;-85
2022/07/31 02:48:24;;;;;;;8.65;6.60;;;;;;;15.50;76.71;100836.38;1860259;77;21302;-85
2022/07/31 02:50:50;;;;;;;12.70;6.25;;;;;;;15.49;76.76;100839.97;1860303;77;21266;-85
2022/07/31 02:53:17;;;;;;;14.10;6.75;;;;;;;15.49;76.60;100843.44;1860328;77;20911;-84
2022/07/31 02:55:44;;;;;;;9.80;6.90;;;;;;;15.48;76.61;100839.63;1860583;77;21061;-85
2022/07/31 02:58:11;;;;;;;12.75;7.00;;;;;;;15.46;76.51;100844.18;1860450;77;20843;-84
2022/07/31 03:00:38;;;;;;;12.90;6.58;;;;;;;15.45;76.64;100834.55;1860150;76;20943;-86
2022/07/31 03:03:05;;;;;;;10.30;6.53;;;;;;;15.43;76.79;100840.43;1860137;76;21699;-85
2022/07/31 03:05:33;;;;;;;11.95;6.45;;;;;;;15.44;76.90;100844.78;1860276;76;20919;-85
2022/07/31 03:07:59;;;;;;;15.23;7.55;;;;;;;15.44;77.11;100838.17;1860150;77;20835;-85
2022/07/31 03:10:27;;;;;;;11.35;7.25;;;;;;;15.44;77.41;100839.48;1860519;77;20955;-86
2022/07/31 03:13:03;;;;;;;14.95;8.28;;;;;;;15.47;77.46;100842.75;1861741;77;20836;-84
2022/07/31 03:15:32;;;;;;;11.33;6.85;;;;;;;15.48;77.43;100839.63;1863266;77;21051;-86
2022/07/31 03:17:59;;;;;;;16.93;7.90;;;;;;;15.51;77.41;100844.66;1860202;77;20876;-87
2022/07/31 03:20:34;;;;;;;11.53;7.05;;;;;;;15.52;77.60;100845.87;1860187;77;20994;-86
2022/07/31 03:23:01;;;;;;;11.93;6.90;;;;;;;15.54;77.69;100842.63;1860175;77;21021;-86
2022/07/31 03:25:28;;;;;;;20.15;7.45;;;;;;;15.56;77.87;100843.81;1860144;77;20879;-85
2022/07/31 03:27:54;;;;;;;14.50;7.10;;;;;;;15.59;78.14;100840.12;1859999;77;21193;-86
2022/07/31 03:30:24;;;;;;;9.80;7.20;;;;;;;15.62;78.32;100842.02;1859989;77;20997;-87
2022/07/31 03:32:54;;;;;;;11.90;7.55;;;;;;;15.66;78.60;100836.03;1830700;77;20895;-85
2022/07/31 03:35:22;;;;;;;11.30;6.33;;;;;;;15.71;78.86;100828.11;1859955;76;20914;-85
2022/07/31 03:37:50;;;;;;;8.35;6.03;;;;;;;15.78;78.91;100835.09;1860171;77;20875;-85
2022/07/31 03:40:16;;;;;;;11.53;7.25;;;;;;;15.85;79.12;100833.66;1859246;77;21208;-86
2022/07/31 03:42:43;;;;;;;44.13;10.43;;;;;;;15.91;79.31;100833.64;1860113;77;20852;-86
2022/07/31 03:45:10;;;;;;;30.57;8.48;;;;;;;15.99;79.45;100830.41;1860206;77;20879;-85
2022/07/31 03:47:37;;;;;;;15.23;7.15;;;;;;;16.05;79.52;100834.73;1860098;77;20883;-86
2022/07/31 03:50:04;;;;;;;10.80;6.72;;;;;;;16.11;79.67;100831.57;1860199;76;20908;-85
2022/07/31 03:52:32;;;;;;;10.72;6.97;;;;;;;16.20;79.80;100830.48;1860023;76;21083;-86
2022/07/31 03:54:59;;;;;;;9.53;6.60;;;;;;;16.27;79.94;100831.17;1859989;77;20899;-85
2022/07/31 03:57:26;;;;;;;15.00;6.78;;;;;;;16.35;79.85;100830.58;1860052;77;20946;-86
2022/07/31 03:59:56;;;;;;;8.98;6.42;;;;;;;16.42;79.85;100826.95;1860043;76;21421;-86
2022/07/31 04:02:25;;;;;;;10.48;6.85;;;;;;;16.52;79.79;100832.70;1860219;77;20899;-86
2022/07/31 04:04:54;;;;;;;13.65;6.97;;;;;;;16.60;79.69;100828.08;1859612;77;21152;-86
2022/07/31 04:07:23;;;;;;;9.78;6.97;;;;;;;16.71;79.59;100833.83;1859892;77;20910;-87
2022/07/31 04:09:50;;;;;;;8.75;6.83;;;;;;;16.80;79.60;100834.41;1861119;76;20879;-85
2022/07/31 04:12:16;;;;;;;9.20;6.30;;;;;;;16.89;79.64;100831.00;1863428;76;20938;-84
2022/07/31 04:14:43;;;;;;;14.63;6.92;;;;;;;17.00;79.61;100830.11;1860792;77;20867;-86
2022/07/31 04:17:11;;;;;;;15.32;7.42;;;;;;;17.11;79.58;100821.26;1859947;77;21143;-85
2022/07/31 04:19:38;;;;;;;13.28;6.83;;;;;;;17.22;79.52;100823.00;1859862;76;20947;-86
2022/07/31 04:22:05;;;;;;;9.58;6.67;;;;;;;17.34;79.41;100824.59;1860123;77;20887;-87
2022/07/31 04:24:33;;;;;;;15.55;6.87;;;;;;;17.46;79.31;100828.03;1860017;77;20931;-87
2022/07/31 04:27:17;;;;;;;11.48;6.45;;;;;;;17.59;79.29;100821.53;1812240;77;21558;-86
2022/07/31 04:29:44;;;;;;;7.70;5.80;;;;;;;17.80;79.31;100825.45;1860110;76;21173;-87
2022/07/31 04:32:11;;;;;;;11.10;5.42;;;;;;;18.07;79.24;100820.05;1860036;77;21436;-86
2022/07/31 04:34:39;;;;;;;10.05;5.60;;;;;;;18.50;79.01;100824.66;1859878;77;21325;-87
2022/07/31 04:37:06;;;;;;;8.75;4.90;;;;;;;19.02;77.85;100822.09;1860303;77;21451;-86
2022/07/31 04:39:33;;;;;;;12.63;5.10;;;;;;;19.68;76.08;100816.41;1860477;77;20915;-87
2022/07/31 04:42:00;;;;;;;14.20;4.85;;;;;;;20.42;73.59;100818.11;1861872;77;21261;-86
2022/07/31 04:44:30;;;;;;;11.18;4.60;;;;;;;21.22;70.99;100816.80;1860840;77;20844;-87
2022/07/31 04:47:02;;;;;;;11.03;4.83;;;;;;;21.97;67.92;100819.40;1860264;77;21407;-85
2022/07/31 04:49:31;;;;;;;11.88;4.65;;;;;;;22.68;65.29;100818.91;1860355;77;20884;-85
2022/07/31 04:52:00;;;;;;;8.30;3.70;;;;;;;23.38;62.59;100812.17;1860176;76;21404;-85
2022/07/31 04:54:28;;;;;;;9.90;4.03;;;;;;;24.02;60.32;100817.49;1859481;76;21154;-86
2022/07/31 04:56:56;;;;;;;6.67;3.02;;;;;;;24.63;57.84;100816.28;1859908;77;21459;-87
2022/07/31 04:59:24;;;;;;;11.68;4.37;;;;;;;25.18;55.67;100811.11;1859950;76;20994;-85
2022/07/31 05:01:50;;;;;;;13.22;8.18;;;;;;;25.68;54.16;100805.22;1860520;77;20926;-86
2022/07/31 05:04:19;;;;;;;14.70;8.55;;;;;;;26.10;52.25;100807.23;1859837;76;21301;-86
2022/07/31 05:06:50;;;;;;;18.75;5.50;;;;;;;26.44;50.33;100809.24;1860217;77;21285;-86
2022/07/31 05:09:22;;;;;;;7.55;2.83;;;;;;;26.77;48.55;100802.03;1862730;77;21419;-85
2022/07/31 05:11:49;;;;;;;9.73;3.27;;;;;;;27.12;47.81;100796.69;1861252;77;21278;-86
2022/07/31 05:14:17;;;;;;;7.33;2.72;;;;;;;27.56;47.45;100798.23;1860015;77;20963;-87
2022/07/31 05:16:44;;;;;;;6.92;2.83;;;;;;;28.03;46.74;100793.88;1859915;77;20958;-87
2022/07/31 05:19:11;;;;;;;7.50;3.15;;;;;;;28.49;44.35;100793.19;1859811;77;21120;-87
2022/07/31 05:21:44;;;;;;;7.30;2.92;;;;;;;28.87;42.59;100789.87;1824352;77;20906;-87
2022/07/31 05:24:22;;;;;;;5.35;2.90;;;;;;;29.17;41.26;100781.86;1858849;76;21401;-87
2022/07/31 05:26:56;;;;;;;5.62;3.10;;;;;;;29.48;41.09;100778.45;1859003;77;21380;-87
2022/07/31 05:29:23;;;;;;;3.75;2.77;;;;;;;29.79;40.28;100780.97;1860101;76;20836;-85
2022/07/31 05:31:50;;;;;;;4.90;2.75;;;;;;;30.04;39.33;100780.55;1860207;77;21123;-85
2022/07/31 05:34:17;;;;;;;5.33;2.75;;;;;;;30.28;38.79;100784.88;1859938;77;21461;-86
2022/07/31 05:36:45;;;;;;;8.73;2.67;;;;;;;30.49;37.72;100776.95;1860060;76;20918;-84
2022/07/31 05:39:13;;;;;;;4.40;3.08;;;;;;;30.70;37.60;100778.43;1860887;76;20954;-86
2022/07/31 05:41:39;;;;;;;11.95;2.83;;;;;;;30.95;37.17;100777.11;1860408;77;20914;-85
2022/07/31 05:44:17;;;;;;;5.08;2.85;;;;;;;31.14;37.05;100780.13;1859580;77;21860;-85
2022/07/31 05:46:45;;;;;;;6.37;2.05;;;;;;;31.40;36.56;100770.06;1858746;77;20954;-85
2022/07/31 05:49:11;;;;;;;8.80;2.60;;;;;;;31.67;36.01;100776.55;1860086;76;20847;-84
2022/07/31 05:51:43;;;;;;;6.47;2.52;;;;;;;31.90;35.32;100776.64;1860061;77;21283;-85
2022/07/31 05:54:09;;;;;;;6.75;2.62;;;;;;;32.06;34.89;100771.16;1830753;77;21317;-85
2022/07/31 05:56:55;;;;;;;6.25;2.30;;;;;;;32.32;34.72;100771.80;1860075;76;21232;-85
2022/07/31 05:59:23;;;;;;;7.83;2.92;;;;;;;32.56;33.80;100776.78;1859945;77;20864;-86
2022/07/31 06:01:50;;;;;;;5.25;2.52;;;;;;;32.70;34.03;100769.23;1860186;77;20871;-85
2022/07/31 06:04:17;;;;;;;6.00;2.55;;;;;;;32.90;33.67;100772.95;1860473;76;20953;-85
2022/07/31 06:06:46;;;;;;;3.83;2.33;;;;;;;33.16;33.24;100772.50;1862368;77;20966;-85
2022/07/31 06:09:14;;;;;;;4.60;2.05;;;;;;;33.43;32.36;100762.46;1861326;77;21128;-84
2022/07/31 06:11:42;;;;;;;4.67;2.83;;;;;;;33.74;31.94;100765.28;1860210;77;21473;-84
2022/07/31 06:14:09;;;;;;;6.10;2.22;;;;;;;34.04;31.61;100769.67;1860287;77;20832;-83
2022/07/31 06:16:37;;;;;;;7.33;1.98;;;;;;;34.24;30.65;100762.40;1859730;77;20891;-84
2022/07/31 06:19:04;;;;;;;6.17;2.05;;;;;;;34.44;30.34;100761.92;1859949;77;20868;-85
2022/07/31 06:21:31;;;;;;;5.12;2.30;;;;;;;34.67;29.67;100764.52;1860090;77;21166;-85
2022/07/31 06:23:57;;;;;;;3.05;2.33;;;;;;;34.88;29.40;100763.45;1860021;77;21431;-84
2022/07/31 06:26:26;;;;;;;5.70;1.80;;;;;;;35.06;29.44;100763.70;1858846;76;21334;-85
2022/07/31 06:28:53;;;;;;;5.85;2.40;;;;;;;35.27;29.19;100767.57;1860073;77;20914;-85
2022/07/31 06:31:20;;;;;;;9.60;1.90;;;;;;;35.52;28.37;100760.78;1857288;76;20899;-84
2022/07/31 06:33:47;;;;;;;5.37;1.72;;;;;;;35.60;28.50;100756.25;1860233;77;21076;-86
2022/07/31 06:36:15;;;;;;;3.05;1.55;;;;;;;35.71;28.33;100748.48;1860137;76;21002;-85
2022/07/31 06:38:44;;;;;;;8.30;1.65;;;;;;;35.89;28.16;100747.30;1859831;76;20942;-85
2022/07/31 06:44:00;;;;;;;2.67;1.80;;;;;;;36.07;27.86;100748.29;1859616;76;20895;-86
2022/07/31 06:46:41;;;;;;;2.90;1.10;;;;;;;36.15;27.21;100749.74;1811912;77;21136;-84
2022/07/31 06:49:15;;;;;;;3.90;1.05;;;;;;;36.37;26.65;100740.09;1859666;76;20919;-83
2022/07/31 06:51:42;;;;;;;4.55;1.15;;;;;;;36.54;24.70;100741.33;1860109;76;20840;-84
2022/07/31 06:54:09;;;;;;;3.27;1.00;;;;;;;36.51;24.45;100737.22;1860140;77;20943;-84
2022/07/31 06:56:37;;;;;;;2.15;1.12;;;;;;;36.50;24.17;100733.37;1859991;77;20974;-85
2022/07/31 06:59:05;;;;;;;3.95;1.10;;;;;;;36.48;23.99;100728.70;1859892;77;21804;-85
2022/07/31 07:01:32;;;;;;;1.47;1.20;;;;;;;36.54;24.34;100722.20;1860044;77;20840;-84
2022/07/31 07:03:59;;;;;;;4.85;1.37;;;;;;;36.71;24.36;100723.44;1860762;77;20875;-86
2022/07/31 07:06:26;;;;;;;2.30;0.98;;;;;;;36.93;23.91;100717.28;1861953;77;20876;-85
2022/07/31 07:08:52;;;;;;;7.12;1.65;;;;;;;37.10;23.96;100719.02;1860038;77;20872;-85
2022/07/31 07:11:20;;;;;;;4.28;1.20;;;;;;;37.21;23.63;100715.78;1859929;77;21113;-84
2022/07/31 07:13:47;;;;;;;3.05;1.20;;;;;;;37.31;23.46;100709.80;1859961;77;20891;-86
2022/07/31 07:16:16;;;;;;;6.72;1.62;;;;;;;37.43;23.23;100716.95;1860267;76;20955;-84
2022/07/31 07:18:43;;;;;;;5.70;0.85;;;;;;;37.54;23.08;100703.57;1862698;77;21084;-83
2022/07/31 07:21:10;;;;;;;3.25;1.87;;;;;;;37.66;22.70;100707.45;1860679;77;20879;-85
2022/07/31 07:23:37;;;;;;;2.98;1.12;;;;;;;37.81;22.63;100709.40;1860107;77;21244;-84
2022/07/31 07:26:11;;;;;;;6.85;6.15;;;;;;;37.95;23.02;100708.59;1847961;77;20887;-85
2022/07/31 07:28:37;;;;;;;4.08;1.07;;;;;;;38.20;22.38;100704.77;1860060;77;20860;-84
2022/07/31 07:31:05;;;;;;;2.12;1.30;;;;;;;38.41;21.53;100704.22;1860198;76;20978;-81
2022/07/31 07:33:32;;;;;;;4.15;1.82;;;;;;;38.50;21.83;100693.81;1860751;77;20848;-84
2022/07/31 07:35:59;;;;;;;1.37;0.98;;;;;;;38.56;21.52;100699.55;1861120;77;21049;-85
2022/07/31 07:38:26;;;;;;;3.87;1.02;;;;;;;38.58;21.20;100695.70;1860342;76;20930;-85
2022/07/31 07:40:53;;;;;;;6.30;1.30;;;;;;;38.54;21.07;100692.16;1860083;77;21045;-83
2022/07/31 07:43:19;;;;;;;6.85;0.93;;;;;;;38.50;21.00;100691.63;1859957;77;20847;-84
2022/07/31 07:45:47;;;;;;;1.92;0.60;;;;;;;38.49;21.02;100689.44;1859920;76;20969;-83
2022/07/31 07:48:14;;;;;;;3.50;1.32;;;;;;;38.47;19.96;100690.79;1859991;77;21113;-83
2022/07/31 07:50:42;;;;;;;5.78;1.20;;;;;;;38.40;20.04;100695.70;1859644;76;20915;-84
2022/07/31 07:53:11;;;;;;;3.67;0.90;;;;;;;38.37;20.59;100691.61;1859717;76;20868;-83
2022/07/31 07:55:55;;;;;;;4.78;0.80;;;;;;;38.32;20.08;100688.88;1858326;77;20966;-84
2022/07/31 07:58:42;;;;;;;2.60;0.50;;;;;;;38.28;20.21;100681.75;1859304;76;20981;-83
2022/07/31 08:01:19;;;;;;;5.42;0.80;;;;;;;38.32;20.70;100679.30;1836857;77;21277;-83
2022/07/31 08:03:48;;;;;;;1.45;0.50;;;;;;;38.37;19.93;100679.27;1860692;77;20963;-84
2022/07/31 08:06:14;;;;;;;4.35;1.17;;;;;;;38.44;20.11;100676.25;1860246;77;21388;-83
2022/07/31 08:08:41;;;;;;;0.80;0.80;;;;;;;38.49;20.07;100670.81;1857078;77;20867;-83
2022/07/31 08:11:21;;;;;;;4.53;1.55;;;;;;;38.58;19.80;100668.30;1859504;76;20907;-83
2022/07/31 08:13:54;;;;;;;1.92;0.70;;;;;;;38.72;19.26;100671.55;1858183;77;21173;-85
2022/07/31 08:16:21;;;;;;;3.10;0.60;;;;;;;38.86;19.10;100670.39;1860006;77;21941;-84
2022/07/31 08:18:50;;;;;;;8.75;1.42;;;;;;;38.96;19.32;100673.70;1859941;77;20875;-84
2022/07/31 08:21:17;;;;;;;2.85;0.75;;;;;;;39.06;19.03;100669.52;1859934;77;20919;-82
2022/07/31 08:23:43;;;;;;;1.67;0.80;;;;;;;39.23;18.95;100668.35;1860018;77;20951;-83
2022/07/31 08:26:10;;;;;;;2.47;0.65;;;;;;;39.40;19.10;100662.50;1859930;77;21224;-84
2022/07/31 08:28:36;;;;;;;1.17;0.82;;;;;;;39.51;18.30;100655.31;1859789;77;21467;-83
2022/07/31 08:31:03;;;;;;;1.05;0.57;;;;;;;39.59;18.74;100654.68;1860030;77;20993;-84
2022/07/31 08:33:31;;;;;;;2.90;1.50;;;;;;;39.68;18.90;100648.03;1860673;76;20919;-84
2022/07/31 08:35:59;;;;;;;3.42;0.90;;;;;;;39.64;18.73;100653.83;1860008;77;21385;-84
2022/07/31 08:38:27;;;;;;;4.47;3.37;;;;;;;39.62;18.83;100656.03;1859974;76;21220;-84
2022/07/31 08:41:07;;;;;;;1.55;0.70;;;;;;;39.66;17.42;100655.73;1859675;77;20876;-84
2022/07/31 08:43:34;;;;;;;1.00;0.60;;;;;;;39.48;18.18;100645.44;1860277;77;20994;-84
2022/07/31 08:46:01;;;;;;;1.50;0.60;;;;;;;39.28;18.15;100639.50;1859886;76;20881;-83
2022/07/31 08:48:32;;;;;;;2.75;0.30;;;;;;;39.19;18.89;100635.16;1860137;76;21349;-83
2022/07/31 08:51:02;;;;;;;6.33;1.00;;;;;;;39.17;17.44;100638.18;1859947;77;21100;-84
2022/07/31 08:53:31;;;;;;;3.87;0.80;;;;;;;39.11;18.42;100642.08;1850914;76;20875;-83
2022/07/31 08:56:00;;;;;;;1.02;0.65;;;;;;;39.08;18.52;100634.95;1858984;77;20867;-84
2022/07/31 08:58:29;;;;;;;3.15;0.65;;;;;;;39.03;19.05;100633.63;1860095;77;20864;-83
2022/07/31 09:00:56;;;;;;;1.25;0.85;;;;;;;39.08;19.46;100627.53;1861414;77;21384;-84
2022/07/31 09:03:23;;;;;;;2.25;0.70;;;;;;;39.17;19.21;100627.20;1857431;76;21125;-84
2022/07/31 09:05:54;;;;;;;1.90;0.60;;;;;;;39.39;19.16;100630.13;1860412;77;21333;-82
2022/07/31 09:08:20;;;;;;;1.00;0.40;;;;;;;39.48;18.25;100619.36;1860224;77;20848;-85
2022/07/31 09:10:50;;;;;;;4.90;0.78;;;;;;;39.40;17.95;100618.59;1860101;76;20923;-84
2022/07/31 09:13:18;;;;;;;1.98;0.60;;;;;;;39.36;18.04;100627.94;1826934;77;20927;-84
2022/07/31 09:15:45;;;;;;;1.12;0.75;;;;;;;39.30;18.13;100620.83;1860004;76;21115;-84
2022/07/31 09:18:20;;;;;;;3.17;0.72;;;;;;;39.28;18.58;100616.99;1860103;77;21484;-86
2022/07/31 09:21:03;;;;;;;3.37;0.85;;;;;;;39.34;18.39;100612.30;1860107;77;20915;-84
2022/07/31 09:23:30;;;;;;;1.98;0.65;;;;;;;39.35;17.91;100613.93;1860033;76;21361;-84
2022/07/31 09:26:01;;;;;;;2.40;0.65;;;;;;;39.31;18.42;100608.73;1860094;76;21397;-84
2022/07/31 09:28:34;;;;;;;1.45;0.57;;;;;;;39.35;18.26;100605.17;1860229;77;21134;-84
2022/07/31 09:31:02;;;;;;;3.47;0.78;;;;;;;39.33;18.12;100610.65;1859968;77;20910;-85
2022/07/31 09:33:49;;;;;;;4.35;1.00;;;;;;;39.34;18.11;100604.07;1860156;76;20935;-83
2022/07/31 09:36:34;;;;;;;4.85;0.60;;;;;;;39.40;17.75;100601.59;1861653;77;20883;-83
2022/07/31 09:39:14;;;;;;;1.47;0.60;;;;;;;39.43;18.12;100600.20;1859221;76;21022;-85
2022/07/31 09:41:59;;;;;;;1.62;0.40;;;;;;;39.42;18.39;100591.12;1860080;77;21435;-85
2022/07/31 09:44:42;;;;;;;1.62;0.80;;;;;;;39.43;18.24;100596.08;1848167;77;20977;-83
2022/07/31 09:47:25;;;;;;;5.33;3.25;;;;;;;39.44;18.57;100582.61;1859725;77;20914;-82
2022/07/31 09:49:54;;;;;;;1.00;0.85;;;;;;;39.51;18.62;100579.83;1860066;77;20939;-85
2022/07/31 09:52:21;;;;;;;3.75;0.57;;;;;;;39.58;18.12;100580.87;1860513;77;21412;-85
2022/07/31 09:54:48;;;;;;;0.75;0.50;;;;;;;39.62;17.79;100577.78;1860544;76;21070;-86
2022/07/31 09:57:17;;;;;;;1.95;0.70;;;;;;;39.59;17.91;100577.00;1831078;77;20989;-85
2022/07/31 09:59:45;;;;;;;3.15;1.00;;;;;;;39.59;18.13;100579.19;1861135;77;20973;-84
2022/07/31 10:02:14;;;;;;;3.35;0.60;;;;;;;39.60;17.62;100582.77;1860016;76;21423;-84
2022/07/31 10:04:41;;;;;;;4.58;0.40;;;;;;;39.59;17.82;100580.56;1860269;77;20871;-85
2022/07/31 10:07:10;;;;;;;1.85;0.93;;;;;;;39.61;17.00;100569.30;1860005;76;22058;-86
2022/07/31 10:09:37;;;;;;;2.15;0.78;;;;;;;39.68;17.46;100564.84;1860018;76;20899;-84
2022/07/31 10:12:13;;;;;;;3.77;0.57;;;;;;;39.82;16.92;100569.11;1860018;77;20887;-85
2022/07/31 10:14:42;;;;;;;2.37;0.40;;;;;;;39.78;17.14;100568.88;1857515;76;20891;-85
2022/07/31 10:17:09;;;;;;;1.15;0.50;;;;;;;39.72;16.75;100561.23;1860093;77;20876;-84
2022/07/31 10:19:41;;;;;;;2.17;1.00;;;;;;;39.61;17.36;100561.63;1860025;77;21233;-85
2022/07/31 10:22:08;;;;;;;1.62;0.50;;;;;;;39.38;17.59;100563.45;1860030;77;20840;-86
2022/07/31 10:24:40;;;;;;;0.60;0.60;;;;;;;39.44;17.77;100556.54;1860118;77;21428;-86
2022/07/31 10:27:06;;;;;;;30.92;28.50;;;;;;;39.62;17.70;100563.25;1860096;77;20927;-84
2022/07/31 10:29:33;;;;;;;3.35;1.87;;;;;;;39.70;17.27;100559.33;1829551;77;20915;-85
2022/07/31 10:32:02;;;;;;;3.00;0.80;;;;;;;39.82;17.41;100558.94;1802106;77;21153;-84
2022/07/31 10:34:32;;;;;;;3.02;1.32;;;;;;;39.93;17.45;100560.53;1860669;77;20876;-84
2022/07/31 10:37:49;;;;;;;3.90;0.53;;;;;;;39.95;16.66;100556.09;1835234;77;20934;-84
2022/07/31 10:40:47;;;;;;;1.85;0.88;;;;;;;39.90;17.37;100548.73;1856944;77;20836;-84
2022/07/31 10:43:28;;;;;;;0.72;0.72;;;;;;;39.92;16.79;100546.52;1860194;77;20962;-83
2022/07/31 10:46:05;;;;;;;1.67;0.50;;;;;;;39.93;17.53;100545.95;1859931;76;21154;-84
2022/07/31 10:48:34;;;;;;;3.98;0.80;;;;;;;39.91;16.68;100546.80;1853677;76;20902;-83
2022/07/31 10:51:09;;;;;;;1.05;0.95;;;;;;;39.83;16.69;100541.95;1859487;77;20950;-85
2022/07/31 10:53:57;;;;;;;3.45;0.80;;;;;;;39.72;17.32;100536.52;1836886;76;21405;-83
2022/07/31 10:56:26;;;;;;;1.22;0.55;;;;;;;39.73;16.69;100538.17;1788933;77;20939;-84
2022/07/31 10:59:00;;;;;;;2.45;0.47;;;;;;;39.71;17.33;100521.70;1860793;77;21405;-84
2022/07/31 11:01:53;;;;;;;4.20;3.55;;;;;;;39.66;16.78;100528.63;1816933;77;20899;-83
2022/07/31 11:04:29;;;;;;;4.42;2.87;;;;;;;39.59;17.54;100520.16;1852224;77;20915;-83
2022/07/31 11:07:18;;;;;;;2.60;0.53;;;;;;;39.54;17.20;100513.36;1859931;77;21548;-85
2022/07/31 11:10:17;;;;;;;4.83;0.90;;;;;;;39.53;17.20;100517.75;1856969;77;21289;-84
2022/07/31 11:13:06;;;;;;;1.00;0.70;;;;;;;39.46;17.50;100520.02;1822766;78;21982;-84
2022/07/31 11:15:36;;;;;;;2.08;0.60;;;;;;;39.46;16.80;100524.95;1819378;78;20943;-84
2022/07/31 11:18:21;;;;;;;2.58;0.50;;;;;;;39.45;17.40;100515.09;1822855;78;21315;-86
2022/07/31 11:21:01;;;;;;;2.90;2.02;;;;;;;39.42;17.30;100507.97;1821736;78;20880;-85
2022/07/31 11:23:29;;;;;;;4.75;1.25;;;;;;;39.41;17.55;100510.47;1822766;78;21542;-86
2022/07/31 11:25:59;;;;;;;5.92;0.60;;;;;;;39.44;17.61;100509.88;1822662;78;21822;-85
2022/07/31 11:28:25;;;;;;;2.15;0.47;;;;;;;39.43;16.74;100505.52;1823894;78;20942;-86
2022/07/31 11:30:56;;;;;;;4.92;2.50;;;;;;;39.37;17.15;100495.09;1822716;78;20869;-86
2022/07/31 11:33:32;;;;;;;3.90;0.70;;;;;;;39.24;17.40;100493.82;1822595;78;21195;-85
2022/07/31 11:36:19;;;;;;;2.85;0.93;;;;;;;39.03;17.53;100493.73;1822680;78;21001;-86
2022/07/31 11:38:48;;;;;;;4.62;4.20;;;;;;;38.81;17.90;100492.75;1822982;78;21451;-84
2022/07/31 11:41:16;;;;;;;4.28;0.85;;;;;;;38.50;17.27;100485.52;1822953;78;20963;-85